Time;durP1;ratioP1;P1;durP2;ratioP2;P2;SDS_P1;SDS_P2;PMS_P1;PMS_P2;Temp;Humidity;BMP_temperature;BMP_pressure;BME280_temperature;BME280_humidity;BME280_pressure;Samples;Min_cycle;Max_cycle;Signal;HPM_P1;HPM_P2
2021/12/16 00:03:44;;;;;;;;;;;;;;;14.62;59.05;102176.50;4968771;28;97758;-61
2021/12/16 00:11:17;;;;;;;;;;;;;;;14.62;59.20;102168.34;4982694;28;98073;-61
2021/12/16 00:32:46;;;;;;;;;;;;;;;14.60;58.81;102174.03;4968111;28;97918;-70
2021/12/16 00:35:12;;;;;;;;;;;;;;;14.61;59.16;102174.88;4968362;28;97993;-60
2021/12/16 00:37:38;;;;;;;;;;;;;;;14.61;58.73;102185.72;4980389;28;98092;-70
2021/12/16 00:40:06;;;;;;;;;;;;;;;14.60;58.88;102187.63;4965395;28;97999;-60
2021/12/16 00:45:32;;;;;;;;;;;;;;;14.60;58.94;102195.75;4985323;28;98074;-61
2021/12/16 00:48:07;;;;;;;;;;;;;;;14.59;58.69;102196.84;4966692;28;97988;-61
2021/12/16 00:55:50;;;;;;;;;;;;;;;14.58;58.70;102188.94;4984760;28;97556;-70
2021/12/16 00:58:20;;;;;;;;;;;;;;;14.58;58.81;102187.06;4968533;28;98442;-60
2021/12/16 01:00:54;;;;;;;;;;;;;;;14.58;58.73;102187.06;4985939;28;98754;-70
2021/12/16 01:03:29;;;;;;;;;;;;;;;14.59;58.67;102196.03;4983846;28;98043;-61
2021/12/16 01:10:07;;;;;;;;;;;;;;;14.57;58.54;102198.16;4984435;28;97865;-70
2021/12/16 01:34:29;;;;;;;;;;;;;;;14.49;59.05;102202.94;4982989;28;97862;-61
2021/12/16 01:42:32;;;;;;;;;;;;;;;14.46;58.89;102217.00;4982981;28;98224;-70
2021/12/16 01:50:15;;;;;;;;;;;;;;;14.43;58.78;102222.09;4982400;27;109430;-70
2021/12/16 01:55:34;;;;;;;;;;;;;;;14.41;58.63;102208.78;4985137;28;98473;-70
2021/12/16 01:58:11;;;;;;;;;;;;;;;14.42;59.03;102217.72;4973236;28;98227;-61
2021/12/16 02:00:53;;;;;;;;;;;;;;;14.40;58.81;102209.84;4966811;28;98164;-70
2021/12/16 02:03:25;;;;;;;;;;;;;;;14.40;58.86;102207.13;4983697;28;98177;-70
2021/12/16 02:05:55;;;;;;;;;;;;;;;14.40;58.83;102206.31;4966067;28;99902;-60
2021/12/16 02:08:28;;;;;;;;;;;;;;;14.40;58.94;102206.31;4973748;28;99035;-61
2021/12/16 02:11:17;;;;;;;;;;;;;;;14.40;59.01;102209.03;4988076;28;97960;-70
2021/12/16 02:27:19;;;;;;;;;;;;;;;14.41;59.04;102213.38;4984075;28;98328;-71
2021/12/16 02:27:31;;;;;;;;;;;;;;;14.42;58.55;102201.44;4931687;28;97975;-61
2021/12/16 02:33:09;;;;;;;;;;;;;;;14.42;58.99;102202.28;4967372;28;97641;-61
2021/12/16 02:35:45;;;;;;;;;;;;;;;14.43;58.48;102203.09;4983959;28;98444;-61
2021/12/16 02:38:14;;;;;;;;;;;;;;;14.43;58.71;102208.53;4967366;28;98086;-61
2021/12/16 02:40:40;;;;;;;;;;;;;;;14.43;58.73;102209.34;4983328;28;98285;-61
2021/12/16 02:50:55;;;;;;;;;;;;;;;14.44;58.53;102197.41;4962481;28;98524;-70
2021/12/16 02:53:21;;;;;;;;;;;;;;;14.45;58.56;102195.53;4965934;28;116093;-61
2021/12/16 02:55:47;;;;;;;;;;;;;;;14.45;58.78;102190.09;4981439;28;128451;-70
2021/12/16 02:58:15;;;;;;;;;;;;;;;14.45;58.81;102193.63;4965789;28;99583;-61
2021/12/16 03:00:44;;;;;;;;;;;;;;;14.45;58.86;102199.06;4964754;28;98420;-71
2021/12/16 03:03:09;;;;;;;;;;;;;;;14.46;58.55;102199.88;4985452;27;97905;-70
2021/12/16 03:05:35;;;;;;;;;;;;;;;14.45;58.81;102196.34;4987062;28;98250;-70
2021/12/16 03:08:01;;;;;;;;;;;;;;;14.46;58.82;102199.88;4978616;28;98650;-61
2021/12/16 03:13:03;;;;;;;;;;;;;;;14.46;58.47;102206.16;4987347;28;109670;-69
2021/12/16 03:18:33;;;;;;;;;;;;;;;14.47;58.64;102201.53;4970198;28;98605;-70
2021/12/16 03:21:05;;;;;;;;;;;;;;;14.47;58.89;102201.53;4987785;28;98518;-69
2021/12/16 03:32:06;;;;;;;;;;;;;;;14.49;58.78;102202.94;4980954;28;97646;-60
2021/12/16 03:34:42;;;;;;;;;;;;;;;14.48;58.64;102203.16;4967158;28;97836;-70
2021/12/16 03:37:22;;;;;;;;;;;;;;;14.48;58.86;102201.28;4953281;28;98235;-60
2021/12/16 03:40:10;;;;;;;;;;;;;;;14.50;58.83;102195.63;4967036;28;98503;-70
2021/12/16 03:42:43;;;;;;;;;;;;;;;14.49;58.35;102197.50;4967043;28;118827;-61
2021/12/16 03:48:01;;;;;;;;;;;;;;;14.49;58.33;102208.38;4959627;28;99745;-70
2021/12/16 03:50:27;;;;;;;;;;;;;;;14.51;58.45;102204.59;4985594;28;98252;-70
2021/12/16 03:52:53;;;;;;;;;;;;;;;14.51;58.37;102205.41;4985859;28;102051;-61
2021/12/16 03:55:19;;;;;;;;;;;;;;;14.51;58.42;102207.31;4985082;28;97757;-60
2021/12/16 03:57:45;;;;;;;;;;;;;;;14.51;58.65;102207.31;4975589;28;98617;-60
2021/12/16 04:00:15;;;;;;;;;;;;;;;14.52;58.64;102214.38;4986869;28;98524;-69
2021/12/16 04:02:41;;;;;;;;;;;;;;;14.53;58.43;102207.88;4986325;28;99160;-60
2021/12/16 04:05:08;;;;;;;;;;;;;;;14.52;58.33;102217.91;4984410;28;121838;-70
2021/12/16 04:07:35;;;;;;;;;;;;;;;14.53;58.45;102216.81;4967678;28;98233;-61
2021/12/16 04:10:02;;;;;;;;;;;;;;;14.54;58.47;102209.50;4985116;28;98369;-61
2021/12/16 04:12:29;;;;;;;;;;;;;;;14.54;58.50;102220.34;4985623;28;97991;-62
2021/12/16 04:14:57;;;;;;;;;;;;;;;14.55;58.32;102224.72;4984689;27;98297;-60
2021/12/16 04:17:24;;;;;;;;;;;;;;;14.55;58.39;102228.25;4970444;28;98005;-70
2021/12/16 04:19:51;;;;;;;;;;;;;;;14.55;58.62;102214.69;4985752;28;121325;-60
2021/12/16 04:22:30;;;;;;;;;;;;;;;14.58;58.37;102224.19;4985505;28;126968;-70
2021/12/16 04:24:56;;;;;;;;;;;;;;;14.57;58.57;102228.00;4984597;28;97823;-61
2021/12/16 04:27:22;;;;;;;;;;;;;;;14.57;58.55;102220.69;4976521;28;106877;-70
2021/12/16 04:29:48;;;;;;;;;;;;;;;14.58;58.30;102221.50;4986401;28;98388;-60
2021/12/16 04:32:14;;;;;;;;;;;;;;;14.58;58.43;102233.19;4984718;28;98027;-61
2021/12/16 04:34:40;;;;;;;;;;;;;;;14.59;58.65;102225.88;4988169;28;98131;-70
2021/12/16 04:37:06;;;;;;;;;;;;;;;14.59;58.28;102223.16;4967489;28;121051;-70
2021/12/16 04:39:33;;;;;;;;;;;;;;;14.59;58.64;102225.88;4958421;28;97793;-70
2021/12/16 04:41:59;;;;;;;;;;;;;;;14.60;58.61;102227.50;4977806;28;119143;-61
2021/12/16 04:44:26;;;;;;;;;;;;;;;14.60;58.32;102216.66;4984715;28;97898;-70
2021/12/16 04:46:53;;;;;;;;;;;;;;;14.60;58.43;102216.66;4956750;28;99711;-70
2021/12/16 04:49:19;;;;;;;;;;;;;;;14.60;58.35;102220.19;4965621;28;116297;-60
2021/12/16 04:51:47;;;;;;;;;;;;;;;14.61;58.28;102218.28;4986191;28;128090;-61
2021/12/16 04:54:13;;;;;;;;;;;;;;;14.61;58.55;102215.56;4985789;28;97737;-61
2021/12/16 04:56:39;;;;;;;;;;;;;;;14.61;58.33;102219.09;4980176;28;99076;-70
2021/12/16 04:59:09;;;;;;;;;;;;;;;14.63;58.63;102221.56;4983316;28;98266;-64
2021/12/16 05:01:36;;;;;;;;;;;;;;;14.62;58.48;102225.34;4982519;28;98274;-61
2021/12/16 05:04:02;;;;;;;;;;;;;;;14.62;58.34;102219.91;4985949;28;97856;-61
2021/12/16 05:06:28;;;;;;;;;;;;;;;14.62;58.41;102220.75;4982073;28;98357;-61
2021/12/16 05:08:54;;;;;;;;;;;;;;;14.63;58.59;102216.16;4975329;28;112142;-70
2021/12/16 05:11:20;;;;;;;;;;;;;;;14.64;58.25;102217.78;4967524;28;100167;-70
2021/12/16 05:13:47;;;;;;;;;;;;;;;14.63;58.35;102224.28;4985656;28;122109;-70
2021/12/16 05:16:14;;;;;;;;;;;;;;;14.64;58.30;102224.03;4980395;28;99123;-61
2021/12/16 05:18:40;;;;;;;;;;;;;;;14.65;58.17;102224.84;4971396;28;98888;-70
2021/12/16 05:21:15;;;;;;;;;;;;;;;14.65;58.62;102227.56;4985999;28;97802;-70
2021/12/16 05:26:26;;;;;;;;;;;;;;;14.65;58.27;102220.22;4975921;28;98027;-69
2021/12/16 05:28:56;;;;;;;;;;;;;;;14.66;58.67;102226.50;4973086;28;128051;-69
2021/12/16 05:31:24;;;;;;;;;;;;;;;14.65;58.29;102227.56;4985132;28;98877;-70
2021/12/16 05:33:50;;;;;;;;;;;;;;;14.66;58.22;102227.31;4986508;28;97865;-69
2021/12/16 05:36:16;;;;;;;;;;;;;;;14.65;58.38;102233.81;4986389;28;116104;-70
2021/12/16 05:38:42;;;;;;;;;;;;;;;14.67;58.30;102241.72;4982241;28;97702;-70
2021/12/16 05:41:09;;;;;;;;;;;;;;;14.66;58.54;102240.91;4988214;28;108853;-70
2021/12/16 05:43:35;;;;;;;;;;;;;;;14.66;58.22;102240.91;4989550;28;97897;-70
2021/12/16 05:46:02;;;;;;;;;;;;;;;14.67;58.15;102250.66;4988358;28;127489;-70
2021/12/16 05:48:29;;;;;;;;;;;;;;;14.66;58.57;102234.66;4980163;28;98329;-70
2021/12/16 05:51:01;;;;;;;;;;;;;;;14.67;58.66;102255.28;4987738;28;120843;-70
2021/12/16 05:53:28;;;;;;;;;;;;;;;14.67;58.62;102255.28;4986245;28;117007;-69
2021/12/16 05:55:54;;;;;;;;;;;;;;;14.67;58.25;102249.84;4988592;28;101827;-70
2021/12/16 05:58:20;;;;;;;;;;;;;;;14.67;58.53;102249.84;4980437;28;98177;-70
2021/12/16 06:00:48;;;;;;;;;;;;;;;14.67;58.55;102255.28;4988691;28;97839;-70
2021/12/16 06:03:14;;;;;;;;;;;;;;;14.66;58.32;102261.78;4989074;28;97872;-70
2021/12/16 06:05:40;;;;;;;;;;;;;;;14.66;58.63;102262.59;4990066;28;99060;-70
2021/12/16 06:08:06;;;;;;;;;;;;;;;14.65;58.25;102263.66;4972009;28;128272;-70
2021/12/16 06:13:17;;;;;;;;;;;;;;;14.66;58.39;102270.75;4989719;28;98016;-70
2021/12/16 06:26:52;;;;;;;;;;;;;;;14.64;58.68;102278.31;4978537;28;97747;-70
2021/12/16 06:29:18;;;;;;;;;;;;;;;14.64;58.76;102278.31;4983782;28;98721;-69
2021/12/16 06:31:44;;;;;;;;;;;;;;;14.64;58.45;102269.34;4989219;28;103349;-69
2021/12/16 06:34:10;;;;;;;;;;;;;;;14.64;58.70;102272.06;4986433;28;121351;-70
2021/12/16 06:36:36;;;;;;;;;;;;;;;14.62;58.74;102263.34;4983073;28;114342;-70
2021/12/16 06:39:03;;;;;;;;;;;;;;;14.61;58.41;102265.22;4986436;28;127424;-70
2021/12/16 06:41:34;;;;;;;;;;;;;;;14.62;58.62;102271.47;4990646;28;116791;-69
2021/12/16 06:44:04;;;;;;;;;;;;;;;14.62;58.18;102274.19;4988353;28;97867;-60
2021/12/16 06:46:34;;;;;;;;;;;;;;;14.61;58.50;102278.81;4982362;28;98164;-61
2021/12/16 06:49:02;;;;;;;;;;;;;;;14.63;58.79;102282.09;4982510;28;98468;-70
2021/12/16 06:54:20;;;;;;;;;;;;;;;14.62;58.74;102276.91;4985089;28;97680;-60
2021/12/16 06:56:55;;;;;;;;;;;;;;;14.63;58.34;102275.84;4976401;28;98200;-60
2021/12/16 06:59:25;;;;;;;;;;;;;;;14.62;58.77;102282.31;4982287;28;98581;-70
2021/12/16 07:02:05;;;;;;;;;;;;;;;14.62;58.46;102290.47;4984516;28;98084;-70
2021/12/16 07:04:31;;;;;;;;;;;;;;;14.63;58.41;102300.28;4984471;28;97978;-60
2021/12/16 07:06:57;;;;;;;;;;;;;;;14.61;58.48;102291.56;4970598;28;99181;-60
2021/12/16 07:09:23;;;;;;;;;;;;;;;14.63;58.43;102295.66;4981153;28;98575;-69
2021/12/16 07:11:52;;;;;;;;;;;;;;;14.63;58.62;102298.38;4982565;28;128162;-60
2021/12/16 07:14:19;;;;;;;;;;;;;;;14.64;58.67;102297.31;4984147;28;97914;-61
2021/12/16 07:16:48;;;;;;;;;;;;;;;14.64;58.80;102296.50;4972862;28;98489;-60
2021/12/16 07:19:14;;;;;;;;;;;;;;;14.64;58.33;102301.91;4976837;28;119636;-60
2021/12/16 07:21:40;;;;;;;;;;;;;;;14.65;58.70;102306.25;4983188;28;119615;-60
2021/12/16 07:24:07;;;;;;;;;;;;;;;14.64;58.79;102308.16;4981390;28;99721;-69
2021/12/16 07:26:33;;;;;;;;;;;;;;;14.66;58.38;102316.88;4980723;28;103196;-70
2021/12/16 07:28:59;;;;;;;;;;;;;;;14.65;58.52;102314.41;4979841;28;126526;-70
2021/12/16 07:31:27;;;;;;;;;;;;;;;14.66;58.59;102316.88;4985023;28;116201;-60
2021/12/16 07:33:53;;;;;;;;;;;;;;;14.68;58.74;102324.78;4983124;28;98185;-61
2021/12/16 07:36:19;;;;;;;;;;;;;;;14.67;58.65;102326.66;4983379;28;99027;-61
2021/12/16 07:38:46;;;;;;;;;;;;;;;14.67;58.77;102329.38;4976213;28;98459;-61
2021/12/16 07:41:13;;;;;;;;;;;;;;;14.66;58.55;102327.75;4981754;28;111278;-61
2021/12/16 07:46:09;;;;;;;;;;;;;;;14.69;58.33;102329.94;4979278;28;98229;-60
2021/12/16 07:48:35;;;;;;;;;;;;;;;14.69;58.41;102335.38;4965471;27;98181;-69
2021/12/16 07:51:02;;;;;;;;;;;;;;;14.70;58.40;102333.50;4979974;28;98105;-61
2021/12/16 07:53:28;;;;;;;;;;;;;;;14.72;58.51;102334.06;4958542;28;117381;-60
2021/12/16 07:55:54;;;;;;;;;;;;;;;14.72;58.79;102326.72;4960712;28;98414;-61
2021/12/16 07:58:23;;;;;;;;;;;;;;;14.75;58.60;102339.00;4958086;28;126150;-60
2021/12/16 08:00:50;;;;;;;;;;;;;;;14.76;58.65;102328.94;4971767;28;97983;-60
2021/12/16 08:03:16;;;;;;;;;;;;;;;14.77;58.79;102331.41;4961284;28;98034;-60
2021/12/16 08:05:46;;;;;;;;;;;;;;;14.77;58.39;102342.25;4975708;28;98690;-60
2021/12/16 08:08:13;;;;;;;;;;;;;;;14.78;58.75;102345.81;4977957;28;98483;-60
2021/12/16 08:10:39;;;;;;;;;;;;;;;14.80;58.72;102354.53;4977647;28;107525;-60
2021/12/16 08:13:05;;;;;;;;;;;;;;;14.80;58.22;102351.81;4976473;28;121717;-61
2021/12/16 08:15:31;;;;;;;;;;;;;;;14.79;58.67;102348.28;4976478;28;126597;-61
2021/12/16 08:17:58;;;;;;;;;;;;;;;14.80;58.49;102360.75;4967457;28;128974;-61
2021/12/16 08:20:24;;;;;;;;;;;;;;;14.82;58.40;102357.81;4976911;28;98485;-61
2021/12/16 08:22:51;;;;;;;;;;;;;;;14.83;58.71;102363.00;4977655;28;98351;-61
2021/12/16 08:25:18;;;;;;;;;;;;;;;14.85;58.76;102365.44;4977070;28;98881;-61
2021/12/16 08:27:44;;;;;;;;;;;;;;;14.86;58.35;102364.38;4967266;28;98664;-60
2021/12/16 08:30:11;;;;;;;;;;;;;;;14.88;58.65;102363.03;4975616;28;98265;-61
2021/12/16 08:32:37;;;;;;;;;;;;;;;14.91;58.21;102356.31;4959366;28;98698;-60
2021/12/16 08:35:04;;;;;;;;;;;;;;;14.93;58.30;102365.00;4977010;28;121689;-61
2021/12/16 08:37:30;;;;;;;;;;;;;;;14.93;58.43;102362.28;4968639;28;98296;-60
2021/12/16 08:39:56;;;;;;;;;;;;;;;14.95;58.28;102362.88;4972511;28;103967;-60
2021/12/16 08:42:22;;;;;;;;;;;;;;;14.98;58.28;102355.06;4973417;28;97958;-60
2021/12/16 08:44:48;;;;;;;;;;;;;;;15.03;58.07;102367.88;4976156;28;124033;-60
2021/12/16 08:47:16;;;;;;;;;;;;;;;15.06;58.30;102366.56;4967968;28;98600;-61
2021/12/16 08:49:42;;;;;;;;;;;;;;;15.10;58.31;102373.13;4976206;28;98702;-60
2021/12/16 08:52:13;;;;;;;;;;;;;;;15.12;58.41;102388.09;4976242;28;104729;-61
2021/12/16 08:54:39;;;;;;;;;;;;;;;15.15;58.29;102390.31;4976895;28;98602;-61
2021/12/16 08:57:05;;;;;;;;;;;;;;;15.17;58.19;102395.50;4972436;28;98780;-61
2021/12/16 08:59:31;;;;;;;;;;;;;;;15.19;58.32;102402.31;4968762;27;98085;-60
2021/12/16 09:01:59;;;;;;;;;;;;;;;15.19;58.20;102396.88;4974739;28;122272;-60
2021/12/16 09:04:26;;;;;;;;;;;;;;;15.21;58.30;102402.88;4976270;28;123382;-60
2021/12/16 09:06:53;;;;;;;;;;;;;;;15.22;58.20;102403.72;4957412;28;127631;-61
2021/12/16 09:09:19;;;;;;;;;;;;;;;15.23;58.27;102408.06;4970983;28;117467;-60
2021/12/16 09:12:02;;;;;;;;;;;;;;;15.23;58.18;102402.63;4975799;28;121508;-61
2021/12/16 09:14:28;;;;;;;;;;;;;;;15.23;58.27;102406.16;4954468;28;98446;-61
2021/12/16 09:16:54;;;;;;;;;;;;;;;15.24;58.27;102409.69;4969790;28;99217;-60
2021/12/16 09:19:20;;;;;;;;;;;;;;;15.26;58.37;102404.03;4954048;28;112965;-60
2021/12/16 09:21:46;;;;;;;;;;;;;;;15.27;58.14;102405.66;4975596;28;116292;-60
2021/12/16 09:24:14;;;;;;;;;;;;;;;15.29;58.25;102406.22;4976036;28;127651;-61
2021/12/16 09:26:41;;;;;;;;;;;;;;;15.29;58.29;102412.50;4966626;28;99116;-60
2021/12/16 09:29:07;;;;;;;;;;;;;;;15.28;58.65;102418.97;4968676;28;123104;-61
2021/12/16 09:31:33;;;;;;;;;;;;;;;15.29;58.23;102420.66;4975875;28;121338;-60
2021/12/16 09:34:06;;;;;;;;;;;;;;;15.30;58.11;102416.84;4976658;28;98905;-60
2021/12/16 09:36:32;;;;;;;;;;;;;;;15.31;58.21;102412.22;4972106;28;98823;-61
2021/12/16 09:38:58;;;;;;;;;;;;;;;15.32;58.38;102395.66;4971879;28;98476;-61
2021/12/16 09:41:25;;;;;;;;;;;;;;;15.34;58.20;102400.88;4957677;28;119837;-60
2021/12/16 09:43:52;;;;;;;;;;;;;;;15.37;58.20;102403.91;4976816;28;98260;-61
2021/12/16 09:46:20;;;;;;;;;;;;;;;15.40;58.58;102405.28;4974768;28;98492;-60
2021/12/16 09:48:46;;;;;;;;;;;;;;;15.43;58.26;102411.03;4969417;28;97785;-60
2021/12/16 09:51:17;;;;;;;;;;;;;;;15.44;58.16;102409.97;4957877;28;98302;-61
2021/12/16 09:53:42;;;;;;;;;;;;;;;15.48;58.30;102404.84;4976374;28;97980;-60
2021/12/16 09:56:09;;;;;;;;;;;;;;;15.50;58.47;102405.41;4955563;28;120691;-60
2021/12/16 09:58:45;;;;;;;;;;;;;;;15.51;58.55;102406.22;4945910;28;98411;-61
2021/12/16 10:01:11;;;;;;;;;;;;;;;15.50;58.19;102405.41;4972386;28;97991;-61
2021/12/16 10:03:38;;;;;;;;;;;;;;;15.49;58.22;102400.25;4980144;28;98846;-60
2021/12/16 10:06:04;;;;;;;;;;;;;;;15.47;58.42;102395.84;4980371;28;98800;-60
2021/12/16 10:08:30;;;;;;;;;;;;;;;15.45;58.58;102389.88;4964790;28;118315;-70
2021/12/16 10:10:58;;;;;;;;;;;;;;;15.45;58.62;102402.66;4977826;28;123500;-70
2021/12/16 10:13:36;;;;;;;;;;;;;;;15.45;58.93;102405.38;4983034;28;97992;-70
2021/12/16 10:18:30;;;;;;;;;;;;;;;15.39;58.95;102409.06;4974050;28;98073;-69
2021/12/16 10:20:58;;;;;;;;;;;;;;;15.37;58.53;102408.53;4979709;28;97903;-60
2021/12/16 10:23:29;;;;;;;;;;;;;;;15.37;58.73;102412.06;4978097;28;120810;-70
2021/12/16 10:26:02;;;;;;;;;;;;;;;15.36;58.83;102420.44;4981986;28;98801;-61
2021/12/16 10:28:30;;;;;;;;;;;;;;;15.37;58.88;102424.81;4965270;28;97910;-70
2021/12/16 10:31:09;;;;;;;;;;;;;;;15.36;58.93;102417.72;4981331;28;102279;-70
2021/12/16 10:33:55;;;;;;;;;;;;;;;15.36;58.85;102404.13;4978423;28;119510;-60
2021/12/16 10:36:29;;;;;;;;;;;;;;;15.35;59.00;102419.63;4977201;28;98302;-61
2021/12/16 10:38:59;;;;;;;;;;;;;;;15.35;58.83;102430.50;4968088;28;98320;-69
2021/12/16 10:41:39;;;;;;;;;;;;;;;15.36;58.63;102434.03;4980110;28;97823;-70
2021/12/16 10:44:15;;;;;;;;;;;;;;;15.36;58.77;102445.72;4973695;28;98098;-70
2021/12/16 10:46:48;;;;;;;;;;;;;;;15.38;58.80;102446.28;4966471;28;118587;-60
2021/12/16 10:49:20;;;;;;;;;;;;;;;15.41;58.88;102434.13;4974942;28;98263;-60
2021/12/16 10:52:07;;;;;;;;;;;;;;;15.46;58.87;102431.44;4979520;28;98089;-60
2021/12/16 10:54:38;;;;;;;;;;;;;;;15.52;58.51;102430.41;4974418;28;98418;-60
2021/12/16 10:57:11;;;;;;;;;;;;;;;15.57;58.55;102440.56;4967536;28;99124;-60
2021/12/16 10:59:39;;;;;;;;;;;;;;;15.57;58.50;102446.81;4967381;28;100418;-60
2021/12/16 11:02:22;;;;;;;;;;;;;;;15.59;58.72;102447.38;4975285;28;98039;-60
2021/12/16 11:05:00;;;;;;;;;;;;;;;15.58;58.66;102434.84;4975170;28;100759;-60
2021/12/16 11:07:39;;;;;;;;;;;;;;;15.58;58.61;102436.75;4958109;28;98294;-60
2021/12/16 11:10:07;;;;;;;;;;;;;;;15.57;58.74;102426.97;4975265;28;98407;-60
2021/12/16 11:12:48;;;;;;;;;;;;;;;15.58;58.91;102425.88;4974839;28;97869;-60
2021/12/16 11:15:30;;;;;;;;;;;;;;;15.56;59.01;102436.19;4975097;28;99113;-60
2021/12/16 11:18:05;;;;;;;;;;;;;;;15.55;59.04;102445.41;4963476;28;98514;-60
2021/12/16 11:20:33;;;;;;;;;;;;;;;15.54;59.00;102451.94;4974432;28;98468;-60
2021/12/16 11:23:10;;;;;;;;;;;;;;;15.52;59.25;102454.06;4975440;27;97997;-60
2021/12/16 11:25:39;;;;;;;;;;;;;;;15.50;59.24;102456.22;4973944;28;99025;-60
2021/12/16 11:28:12;;;;;;;;;;;;;;;15.49;59.03;102465.47;4969362;28;117937;-61
2021/12/16 11:30:52;;;;;;;;;;;;;;;15.48;59.34;102470.06;4979444;28;98679;-60
2021/12/16 11:33:30;;;;;;;;;;;;;;;15.46;58.91;102454.00;4982246;28;97771;-60
2021/12/16 11:36:07;;;;;;;;;;;;;;;15.46;58.99;102440.44;4983738;28;97995;-70
2021/12/16 11:38:44;;;;;;;;;;;;;;;15.49;59.00;102427.41;4983184;28;98447;-69
2021/12/16 11:41:41;;;;;;;;;;;;;;;15.48;59.33;102429.28;4979538;28;97934;-70
2021/12/16 11:44:32;;;;;;;;;;;;;;;15.49;59.24;102425.53;4978854;28;98182;-61
2021/12/16 11:47:06;;;;;;;;;;;;;;;15.50;59.34;102424.44;4975160;28;98970;-61
2021/12/16 11:49:35;;;;;;;;;;;;;;;15.50;59.16;102424.44;4979482;28;98352;-61
2021/12/16 11:52:02;;;;;;;;;;;;;;;15.51;59.10;102426.06;4982852;28;97817;-60
2021/12/16 11:54:43;;;;;;;;;;;;;;;15.50;59.23;102429.06;4984927;28;98139;-61
2021/12/16 11:57:34;;;;;;;;;;;;;;;15.51;59.36;102433.41;4954592;28;98672;-70
2021/12/16 12:00:08;;;;;;;;;;;;;;;15.50;59.24;102431.78;4963045;28;99936;-70
2021/12/16 12:02:38;;;;;;;;;;;;;;;15.47;59.31;102435.81;4973220;28;113702;-69
2021/12/16 12:05:42;;;;;;;;;;;;;;;15.46;59.33;102439.59;4982983;28;97875;-60
2021/12/16 12:08:20;;;;;;;;;;;;;;;15.44;59.30;102447.16;4971347;28;98752;-60
2021/12/16 12:10:53;;;;;;;;;;;;;;;15.43;59.31;102440.09;4982268;28;97818;-70
2021/12/16 12:13:24;;;;;;;;;;;;;;;15.42;59.45;102438.47;4982268;28;98495;-70
2021/12/16 12:15:58;;;;;;;;;;;;;;;15.42;59.55;102443.91;4984202;28;109789;-70
2021/12/16 12:18:44;;;;;;;;;;;;;;;15.42;59.28;102442.00;4975655;28;98075;-70
2021/12/16 12:21:28;;;;;;;;;;;;;;;15.43;59.22;102443.63;4982121;28;98500;-70
2021/12/16 12:23:57;;;;;;;;;;;;;;;15.44;59.28;102455.31;4981200;28;98478;-70
2021/12/16 12:26:23;;;;;;;;;;;;;;;15.42;59.55;102452.88;4980895;28;98029;-60
2021/12/16 12:28:52;;;;;;;;;;;;;;;15.45;59.36;102441.50;4976115;28;115239;-70
2021/12/16 12:31:20;;;;;;;;;;;;;;;15.44;59.27;102442.59;4982960;28;99172;-60
2021/12/16 12:33:47;;;;;;;;;;;;;;;15.45;59.59;102443.41;4980319;27;120361;-69
2021/12/16 12:36:14;;;;;;;;;;;;;;;15.46;59.19;102454.00;4979357;27;98756;-70
2021/12/16 12:38:40;;;;;;;;;;;;;;;15.47;59.39;102447.50;4949032;28;99043;-69
2021/12/16 12:41:06;;;;;;;;;;;;;;;15.49;59.24;102446.44;4942711;28;98566;-70
2021/12/16 12:43:35;;;;;;;;;;;;;;;15.50;59.45;102448.06;4981492;28;98172;-70
2021/12/16 12:46:03;;;;;;;;;;;;;;;15.50;59.44;102446.19;4980732;28;97955;-70
2021/12/16 12:48:29;;;;;;;;;;;;;;;15.51;59.24;102449.72;4963043;28;99149;-60
2021/12/16 12:50:57;;;;;;;;;;;;;;;15.50;59.42;102443.47;4962601;28;128227;-69
2021/12/16 12:53:39;;;;;;;;;;;;;;;15.51;59.18;102452.44;4977282;28;98631;-69
2021/12/16 12:56:32;;;;;;;;;;;;;;;15.50;59.33;102448.06;4963907;28;98076;-60
2021/12/16 12:59:05;;;;;;;;;;;;;;;15.50;59.26;102448.91;4969836;28;98244;-70
2021/12/16 13:01:49;;;;;;;;;;;;;;;15.51;59.60;102460.59;4980771;28;99223;-60
2021/12/16 13:04:24;;;;;;;;;;;;;;;15.51;59.31;102457.88;4980408;28;98430;-60
2021/12/16 13:07:05;;;;;;;;;;;;;;;15.51;59.25;102458.69;4972943;28;97897;-61
2021/12/16 13:09:34;;;;;;;;;;;;;;;15.52;59.54;102451.34;4982950;28;122203;-70
2021/12/16 13:12:02;;;;;;;;;;;;;;;15.50;59.32;102450.78;4983222;28;98382;-70
2021/12/16 13:14:44;;;;;;;;;;;;;;;15.51;59.52;102458.69;4983371;28;97817;-70
2021/12/16 13:28:04;;;;;;;;;;;;;;;15.47;59.41;102461.09;4968663;28;97999;-70
2021/12/16 13:30:33;;;;;;;;;;;;;;;15.46;59.60;102462.16;4981787;28;98768;-61
2021/12/16 13:33:22;;;;;;;;;;;;;;;15.45;59.48;102462.44;4959591;28;99588;-70
2021/12/16 13:36:00;;;;;;;;;;;;;;;15.45;59.80;102476.00;4980972;28;98358;-60
2021/12/16 13:38:26;;;;;;;;;;;;;;;15.45;59.35;102484.97;4965474;28;97880;-61
2021/12/16 13:40:52;;;;;;;;;;;;;;;15.43;59.69;102481.69;4954264;28;128360;-60
2021/12/16 13:43:19;;;;;;;;;;;;;;;15.44;59.35;102485.22;4979253;27;130490;-70
2021/12/16 13:46:48;;;;;;;;;;;;;;;15.43;59.37;102489.84;4974424;28;98190;-60
2021/12/16 14:03:15;;;;;;;;;;;;;;;15.38;59.79;102494.38;4980706;28;97955;-70
2021/12/16 14:06:15;;;;;;;;;;;;;;;15.38;59.56;102503.34;4979803;28;99032;-70
2021/12/16 14:08:47;;;;;;;;;;;;;;;15.36;59.88;102497.34;4959579;28;99094;-60
2021/12/16 14:12:35;;;;;;;;;;;;;;;15.36;59.78;102505.50;4977415;28;98043;-70
2021/12/16 14:14:52;;;;;;;;;;;;;;;15.37;59.57;102504.44;4970276;28;97824;-70
2021/12/16 14:23:15;;;;;;;;;;;;;;;15.34;59.84;102501.41;4982214;28;98159;-69
2021/12/16 14:26:08;;;;;;;;;;;;;;;15.33;59.52;102508.72;4980156;28;98414;-60
2021/12/16 14:31:37;;;;;;;;;;;;;;;15.32;59.68;102519.84;4962678;28;98362;-60
2021/12/16 14:49:50;;;;;;;;;;;;;;;15.27;59.82;102528.72;4972353;28;99716;-60
2021/12/16 14:52:21;;;;;;;;;;;;;;;15.27;59.67;102527.91;4979127;28;117261;-69
2021/12/16 14:54:56;;;;;;;;;;;;;;;15.25;59.66;102533.59;4962166;28;97959;-60
2021/12/16 14:57:36;;;;;;;;;;;;;;;15.27;59.60;102531.44;4967953;28;111715;-60
2021/12/16 15:00:13;;;;;;;;;;;;;;;15.26;59.74;102526.28;4982805;28;98403;-60
2021/12/16 15:02:41;;;;;;;;;;;;;;;15.26;59.75;102532.53;4984604;28;97855;-60
2021/12/16 15:05:24;;;;;;;;;;;;;;;15.25;59.79;102547.19;4983530;28;98094;-69
2021/12/16 15:07:50;;;;;;;;;;;;;;;15.25;59.53;102536.31;4976756;28;99254;-70
2021/12/16 15:10:17;;;;;;;;;;;;;;;15.25;59.75;102538.19;4984248;28;98011;-69
2021/12/16 15:12:51;;;;;;;;;;;;;;;15.24;59.48;102540.09;4984787;28;98360;-69
2021/12/16 15:15:29;;;;;;;;;;;;;;;15.23;59.58;102557.47;4984578;28;97917;-69
2021/12/16 15:37:43;;;;;;;;;;;;;;;15.20;59.81;102553.34;4970761;28;98468;-70
2021/12/16 15:40:33;;;;;;;;;;;;;;;15.19;59.81;102553.59;4961513;28;98675;-70
2021/12/16 15:43:01;;;;;;;;;;;;;;;15.19;59.75;102556.31;4982317;28;98667;-70
2021/12/16 15:45:38;;;;;;;;;;;;;;;15.18;59.67;102568.25;4984514;28;97858;-60
2021/12/16 15:48:13;;;;;;;;;;;;;;;15.16;59.50;102570.38;4946743;28;98223;-70
2021/12/16 15:50:46;;;;;;;;;;;;;;;15.15;59.52;102568.75;4983463;28;98550;-60
2021/12/16 15:53:17;;;;;;;;;;;;;;;15.13;59.34;102576.31;4985396;28;98852;-70
2021/12/16 15:56:10;;;;;;;;;;;;;;;15.11;59.80;102579.28;4982521;28;98164;-70
2021/12/16 15:59:00;;;;;;;;;;;;;;;15.09;59.73;102595.03;4983670;28;97833;-69
2021/12/16 16:01:29;;;;;;;;;;;;;;;15.08;59.66;102596.06;4982208;28;97985;-61
2021/12/16 16:03:55;;;;;;;;;;;;;;;15.08;59.64;102603.41;4982252;28;98472;-60
2021/12/16 16:06:21;;;;;;;;;;;;;;;15.06;59.45;102600.13;4975173;28;118242;-69
2021/12/16 16:09:10;;;;;;;;;;;;;;;15.05;59.82;102599.31;4969910;28;122182;-60
2021/12/16 16:11:37;;;;;;;;;;;;;;;15.06;59.39;102594.69;4973790;28;99040;-60
2021/12/16 16:14:04;;;;;;;;;;;;;;;15.05;59.80;102598.44;4981458;28;110477;-63
2021/12/16 16:16:40;;;;;;;;;;;;;;;15.04;59.70;102613.09;4979660;28;103178;-69
2021/12/16 16:19:08;;;;;;;;;;;;;;;15.04;59.49;102613.09;4979133;28;97923;-69